Time;durP1;ratioP1;P1;durP2;ratioP2;P2;SDS_P1;SDS_P2;PMS_P1;PMS_P2;Temp;Humidity;BMP_temperature;BMP_pressure;BME280_temperature;BME280_humidity;BME280_pressure;Samples;Min_cycle;Max_cycle;Signal;HPM_P1;HPM_P2
2021/04/21 00:00:37;;;;;;;5.28;2.08;;;13.30;62.20;;;;;;4991416;28;20450;-77
2021/04/21 00:03:04;;;;;;;4.45;1.98;;;13.20;62.30;;;;;;5006781;28;20121;-77
2021/04/21 00:05:30;;;;;;;3.45;1.98;;;13.20;62.40;;;;;;4991310;28;20026;-77
2021/04/21 00:07:57;;;;;;;5.47;2.22;;;13.20;63.10;;;;;;4992245;28;20467;-77
2021/04/21 00:10:24;;;;;;;5.97;2.38;;;13.20;62.50;;;;;;4991346;28;20110;-76
2021/04/21 00:12:53;;;;;;;5.90;2.10;;;13.20;62.70;;;;;;4992168;28;20038;-77
2021/04/21 00:15:22;;;;;;;4.53;1.90;;;13.10;62.70;;;;;;4992579;28;20077;-76
2021/04/21 00:17:52;;;;;;;5.43;2.10;;;13.10;62.80;;;;;;4991322;28;20034;-77
2021/04/21 00:20:19;;;;;;;4.65;2.25;;;13.10;62.80;;;;;;4990976;28;20018;-77
2021/04/21 00:22:53;;;;;;;5.60;2.20;;;13.10;62.90;;;;;;4991294;28;20383;-76
2021/04/21 00:25:19;;;;;;;5.15;2.30;;;13.10;62.90;;;;;;4992829;28;20096;-77
2021/04/21 00:27:46;;;;;;;5.18;2.30;;;13.00;62.90;;;;;;4992622;28;20109;-77
2021/04/21 00:30:13;;;;;;;6.20;2.63;;;13.00;62.80;;;;;;4991902;28;20087;-77
2021/04/21 00:32:44;;;;;;;5.22;2.13;;;13.00;62.80;;;;;;4993258;28;20033;-76
2021/04/21 00:35:12;;;;;;;;;;;13.00;62.80;;;;;;4995273;28;20022;-77
2021/04/21 00:37:38;;;;;;;3.72;2.00;;;12.90;62.80;;;;;;4996737;28;19906;-77
2021/04/21 00:40:08;;;;;;;7.05;2.40;;;12.90;62.80;;;;;;4996245;28;20031;-77
2021/04/21 00:42:44;;;;;;;4.97;2.15;;;12.90;62.80;;;;;;4994985;28;20030;-77
2021/04/21 00:45:14;;;;;;;3.92;1.98;;;12.90;62.70;;;;;;4996090;28;20258;-76
2021/04/21 00:48:03;;;;;;;3.65;1.77;;;12.90;63.30;;;;;;4996593;28;20035;-76
2021/04/21 00:50:53;;;;;;;5.78;2.10;;;12.90;62.50;;;;;;4996627;28;20072;-77
2021/04/21 00:53:33;;;;;;;4.00;2.17;;;12.80;62.70;;;;;;4995097;28;20435;-76
2021/04/21 00:56:26;;;;;;;5.00;2.28;;;12.70;62.70;;;;;;4995896;28;20022;-77
2021/04/21 00:59:07;;;;;;;8.35;2.55;;;12.70;62.70;;;;;;4994242;28;20466;-78
2021/04/21 01:01:36;;;;;;;6.63;2.28;;;12.70;63.60;;;;;;4996177;28;20034;-77
2021/04/21 01:04:04;;;;;;;4.90;2.30;;;12.60;62.90;;;;;;4995038;28;20054;-77
2021/04/21 01:06:36;;;;;;;6.38;2.55;;;12.60;62.80;;;;;;4995925;28;20022;-77
2021/04/21 01:09:04;;;;;;;3.92;2.13;;;12.70;62.90;;;;;;4994176;28;20022;-76
2021/04/21 01:11:32;;;;;;;5.53;2.65;;;12.60;63.00;;;;;;4996032;28;20026;-78
2021/04/21 01:14:07;;;;;;;5.55;2.53;;;12.60;63.10;;;;;;4993927;28;20018;-77
2021/04/21 01:16:35;;;;;;;5.53;2.47;;;12.60;63.20;;;;;;4994641;28;20034;-77
2021/04/21 01:19:09;;;;;;;4.93;2.20;;;12.50;63.30;;;;;;4993943;28;20030;-77
2021/04/21 01:21:47;;;;;;;5.13;2.28;;;12.50;63.40;;;;;;4995318;28;20034;-77
2021/04/21 01:24:38;;;;;;;3.88;2.20;;;12.40;63.40;;;;;;4995022;28;20513;-77
2021/04/21 01:27:18;;;;;;;5.18;2.10;;;12.40;63.50;;;;;;4993843;28;20031;-77
2021/04/21 01:29:46;;;;;;;7.55;2.72;;;12.30;63.40;;;;;;4993955;28;20129;-77
2021/04/21 01:32:26;;;;;;;4.68;2.13;;;12.20;63.60;;;;;;4993503;28;20034;-77
2021/04/21 01:34:56;;;;;;;5.20;2.53;;;12.20;63.70;;;;;;4995756;28;20037;-77
2021/04/21 01:37:26;;;;;;;5.22;2.40;;;12.10;63.70;;;;;;4995131;28;20031;-76
2021/04/21 01:40:02;;;;;;;4.93;2.67;;;12.10;64.50;;;;;;4995468;28;20034;-76
2021/04/21 01:42:32;;;;;;;6.05;2.63;;;12.10;63.90;;;;;;4994092;28;20266;-76
2021/04/21 01:44:59;;;;;;;6.73;2.70;;;12.00;63.90;;;;;;4995118;28;20532;-76
2021/04/21 01:47:25;;;;;;;9.70;2.63;;;12.00;64.00;;;;;;4995123;28;20034;-76
2021/04/21 01:50:04;;;;;;;5.90;2.67;;;11.90;64.00;;;;;;4993880;28;20501;-77
2021/04/21 01:52:43;;;;;;;6.93;2.72;;;11.90;64.20;;;;;;4995425;28;20022;-77
2021/04/21 01:55:32;;;;;;;6.30;2.80;;;11.80;64.20;;;;;;4992882;28;20029;-77
2021/04/21 01:58:09;;;;;;;5.82;2.80;;;11.80;64.30;;;;;;4993421;28;20121;-77
2021/04/21 02:00:44;;;;;;;6.57;2.60;;;11.80;64.40;;;;;;4994919;28;20027;-77
2021/04/21 02:03:39;;;;;;;4.50;2.65;;;11.80;64.40;;;;;;4992866;28;20042;-77
2021/04/21 02:06:28;;;;;;;4.10;2.10;;;11.70;64.40;;;;;;4992973;28;20096;-77
2021/04/21 02:09:22;;;;;;;4.32;2.53;;;11.80;64.40;;;;;;4993604;28;20022;-77
2021/04/21 02:11:56;;;;;;;8.95;3.17;;;11.70;64.40;;;;;;4994727;28;20030;-77
2021/04/21 02:14:40;;;;;;;4.50;2.63;;;11.70;64.60;;;;;;4993490;28;20027;-77
2021/04/21 02:17:18;;;;;;;4.65;2.40;;;11.70;64.60;;;;;;4992859;28;20450;-78
2021/04/21 02:19:49;;;;;;;5.97;2.90;;;11.60;64.70;;;;;;4993328;28;20080;-77
2021/04/21 02:22:26;;;;;;;7.00;3.15;;;11.60;64.80;;;;;;4992676;28;20106;-77
2021/04/21 02:25:16;;;;;;;5.43;2.50;;;11.60;64.80;;;;;;4992913;28;20077;-76
2021/04/21 02:28:06;;;;;;;7.15;2.75;;;11.60;64.90;;;;;;4993067;28;20057;-77
2021/04/21 02:30:45;;;;;;;7.50;2.88;;;11.60;64.80;;;;;;4992786;28;20081;-77
2021/04/21 02:33:27;;;;;;;5.93;3.15;;;11.60;64.90;;;;;;4993739;28;20077;-77
2021/04/21 02:36:00;;;;;;;5.38;2.40;;;11.60;65.00;;;;;;4994328;28;20022;-76
2021/04/21 02:38:32;;;;;;;3.80;2.08;;;11.50;65.00;;;;;;4994392;28;20133;-77
2021/04/21 02:41:12;;;;;;;6.05;2.38;;;11.50;65.10;;;;;;4994286;28;20097;-77
2021/04/21 02:43:56;;;;;;;4.38;2.22;;;11.50;65.10;;;;;;4993878;28;20026;-76
2021/04/21 02:46:45;;;;;;;5.18;2.47;;;11.50;65.10;;;;;;4993523;28;20058;-76
2021/04/21 02:49:23;;;;;;;6.03;2.97;;;11.60;65.10;;;;;;4993540;28;20474;-77
2021/04/21 02:52:05;;;;;;;4.75;2.30;;;11.60;65.00;;;;;;4992710;28;20022;-76
2021/04/21 02:54:46;;;;;;;7.90;2.90;;;11.60;65.00;;;;;;4993058;28;20327;-77
2021/04/21 02:57:30;;;;;;;7.03;3.22;;;11.60;65.00;;;;;;4992139;28;20034;-77
2021/04/21 03:00:05;;;;;;;6.13;2.70;;;11.60;65.00;;;;;;4992445;28;20030;-78
2021/04/21 03:02:39;;;;;;;7.75;2.78;;;11.60;65.00;;;;;;4993520;28;20121;-77
2021/04/21 03:05:19;;;;;;;6.05;2.78;;;11.60;65.00;;;;;;4993034;28;20030;-77
2021/04/21 03:07:54;;;;;;;7.25;2.80;;;11.60;65.00;;;;;;4992633;28;20053;-76
2021/04/21 03:10:22;;;;;;;8.07;3.08;;;11.60;64.90;;;;;;4993056;28;20014;-77
2021/04/21 03:12:54;;;;;;;6.70;2.80;;;11.70;64.90;;;;;;4993272;28;20033;-77
2021/04/21 03:15:23;;;;;;;7.32;3.83;;;11.70;64.90;;;;;;4992911;28;20049;-77
2021/04/21 03:17:53;;;;;;;5.75;2.67;;;11.70;64.90;;;;;;4992189;28;20030;-77
2021/04/21 03:20:21;;;;;;;7.22;3.08;;;11.70;64.90;;;;;;4992904;28;20018;-75
2021/04/21 03:23:02;;;;;;;9.02;3.05;;;11.70;64.90;;;;;;4992241;28;20081;-77
2021/04/21 03:25:48;;;;;;;10.57;3.58;;;11.70;65.20;;;;;;4992109;28;20464;-77
2021/04/21 03:28:17;;;;;;;6.40;2.55;;;11.70;64.90;;;;;;4992417;28;20037;-76
2021/04/21 03:30:45;;;;;;;5.35;2.40;;;11.70;64.80;;;;;;4993166;28;20042;-77
2021/04/21 03:33:17;;;;;;;4.25;2.17;;;11.70;64.80;;;;;;4991191;28;20022;-77
2021/04/21 03:35:49;;;;;;;4.60;2.50;;;11.80;64.70;;;;;;4993361;28;20070;-77
2021/04/21 03:38:16;;;;;;;6.05;2.38;;;11.80;64.70;;;;;;4990948;28;20026;-77
2021/04/21 03:40:42;;;;;;;7.28;2.88;;;11.80;64.50;;;;;;4991951;28;20490;-77
2021/04/21 03:43:09;;;;;;;4.95;2.83;;;11.90;64.50;;;;;;4991452;28;20062;-76
2021/04/21 03:45:37;;;;;;;8.52;3.00;;;11.90;64.50;;;;;;4991374;28;20034;-76
2021/04/21 03:48:03;;;;;;;5.40;2.72;;;11.90;64.40;;;;;;4992934;28;20030;-76
2021/04/21 03:50:30;;;;;;;7.00;2.40;;;11.90;64.50;;;;;;4993004;28;20029;-75
2021/04/21 03:53:03;;;;;;;5.22;2.30;;;11.80;64.50;;;;;;4993167;28;20046;-78
2021/04/21 03:55:30;;;;;;;7.63;3.17;;;11.90;64.70;;;;;;4991691;28;20031;-78
2021/04/21 03:58:05;;;;;;;5.82;2.92;;;11.80;64.70;;;;;;4991670;28;20046;-78
2021/04/21 04:00:33;;;;;;;6.97;2.60;;;11.80;64.80;;;;;;4993130;28;20104;-79
2021/04/21 04:03:04;;;;;;;5.38;3.10;;;11.70;64.80;;;;;;5003797;28;20486;-77
2021/04/21 04:05:46;;;;;;;5.82;2.65;;;11.70;64.90;;;;;;5009980;28;20378;-79
2021/04/21 04:08:16;;;;;;;8.73;3.58;;;11.70;65.00;;;;;;5010335;28;20026;-78
2021/04/21 04:10:48;;;;;;;5.55;3.25;;;11.70;65.10;;;;;;5014411;28;20022;-78
2021/04/21 04:13:15;;;;;;;5.78;2.97;;;11.60;65.10;;;;;;5010724;28;20454;-79
2021/04/21 04:15:42;;;;;;;5.88;2.30;;;11.60;65.10;;;;;;5013713;28;20018;-78
2021/04/21 04:18:12;;;;;;;6.50;3.10;;;11.60;65.20;;;;;;5010083;28;20018;-79
2021/04/21 04:20:42;;;;;;;7.65;3.38;;;11.60;65.30;;;;;;5012306;28;20526;-78
2021/04/21 04:23:10;;;;;;;6.17;2.60;;;11.50;65.20;;;;;;5012177;28;20030;-79
2021/04/21 04:25:44;;;;;;;6.72;3.53;;;11.50;65.40;;;;;;5012481;28;20030;-77
2021/04/21 04:28:11;;;;;;;5.90;2.97;;;11.50;65.50;;;;;;5012079;28;20049;-79
2021/04/21 04:30:38;;;;;;;8.23;3.40;;;11.40;65.40;;;;;;5010795;28;20113;-78
2021/04/21 04:33:05;;;;;;;8.75;3.00;;;11.40;65.50;;;;;;5012238;28;20467;-77
2021/04/21 04:35:32;;;;;;;5.63;2.50;;;11.40;65.50;;;;;;5010459;28;20025;-78
2021/04/21 04:38:00;;;;;;;6.72;2.78;;;11.50;65.50;;;;;;5011938;28;20022;-78
2021/04/21 04:40:26;;;;;;;6.15;3.30;;;11.40;65.50;;;;;;5010140;28;20095;-79
2021/04/21 04:42:53;;;;;;;6.15;2.78;;;11.30;65.50;;;;;;5010512;28;20417;-78
2021/04/21 04:45:20;;;;;;;6.63;3.10;;;11.30;65.70;;;;;;5011736;28;20029;-77
2021/04/21 04:47:49;;;;;;;8.10;3.45;;;11.20;65.80;;;;;;5011587;28;20355;-72
2021/04/21 04:50:20;;;;;;;8.68;3.55;;;11.20;65.80;;;;;;5008998;28;20026;-78
2021/04/21 04:52:50;;;;;;;7.75;3.03;;;11.20;65.80;;;;;;5010649;28;20097;-81
2021/04/21 04:55:19;;;;;;;8.13;2.97;;;11.20;65.90;;;;;;5009339;28;20018;-76
2021/04/21 04:57:47;;;;;;;8.75;3.28;;;11.10;66.00;;;;;;5008180;28;20136;-76
2021/04/21 05:00:24;;;;;;;10.45;3.58;;;11.00;66.10;;;;;;5007841;28;20026;-74
2021/04/21 05:03:12;;;;;;;7.38;4.00;;;11.00;66.20;;;;;;5009095;28;20050;-78
2021/04/21 05:05:38;;;;;;;8.13;4.88;;;11.00;66.30;;;;;;5008293;28;20033;-76
2021/04/21 05:08:11;;;;;;;7.68;3.58;;;11.00;66.40;;;;;;5008067;28;20030;-76
2021/04/21 05:10:41;;;;;;;8.50;4.10;;;11.00;66.50;;;;;;5008050;28;20026;-75
2021/04/21 05:13:13;;;;;;;6.35;3.35;;;11.00;66.60;;;;;;5009325;28;20022;-78
2021/04/21 05:15:38;;;;;;;8.75;3.42;;;11.00;66.70;;;;;;5009148;28;20149;-79
2021/04/21 05:18:23;;;;;;;6.38;3.50;;;11.00;66.70;;;;;;5008174;28;20046;-78
2021/04/21 05:21:22;;;;;;;8.57;3.83;;;11.00;66.70;;;;;;5011187;28;20594;-78
2021/04/21 05:24:12;;;;;;;7.65;4.28;;;11.00;66.80;;;;;;5011980;28;20425;-79
2021/04/21 05:27:15;;;;;;;7.55;3.80;;;11.00;66.80;;;;;;5014354;28;20061;-78
2021/04/21 05:30:12;;;;;;;8.07;3.55;;;11.00;66.80;;;;;;5016097;28;20060;-81
2021/04/21 05:33:16;;;;;;;9.43;4.70;;;11.10;66.90;;;;;;5015731;28;20414;-79
2021/04/21 05:36:09;;;;;;;9.38;4.55;;;11.10;66.80;;;;;;5017873;28;20033;-79
2021/04/21 05:39:06;;;;;;;8.02;3.40;;;11.10;66.60;;;;;;5013488;28;20191;-78
2021/04/21 05:41:40;;;;;;;6.47;3.40;;;11.10;66.50;;;;;;5014104;28;20029;-79
2021/04/21 05:44:54;;;;;;;5.60;2.75;;;11.10;66.40;;;;;;5013630;28;20030;-79
2021/04/21 05:47:33;;;;;;;8.10;3.13;;;11.10;66.30;;;;;;5000748;28;20389;-79
2021/04/21 05:50:29;;;;;;;7.85;3.20;;;11.10;66.20;;;;;;5014911;28;20550;-79
2021/04/21 05:53:09;;;;;;;10.15;3.03;;;11.10;66.20;;;;;;5013643;28;20033;-79
2021/04/21 05:55:37;;;;;;;7.80;3.38;;;11.10;66.00;;;;;;5014689;28;20041;-78
2021/04/21 05:58:34;;;;;;;8.75;3.35;;;11.20;65.80;;;;;;5013356;28;20076;-78
2021/04/21 06:01:29;;;;;;;9.25;3.55;;;11.30;65.60;;;;;;5013590;28;20018;-78
2021/04/21 06:03:57;;;;;;;8.45;3.85;;;11.30;65.40;;;;;;5014040;28;20058;-78
2021/04/21 06:06:26;;;;;;;6.75;3.22;;;11.40;65.40;;;;;;5012960;28;20052;-79
2021/04/21 06:08:52;;;;;;;7.82;3.05;;;11.50;65.40;;;;;;5013732;28;20030;-79
2021/04/21 06:11:23;;;;;;;7.75;3.80;;;11.50;65.20;;;;;;5014059;28;20108;-80
2021/04/21 06:13:51;;;;;;;6.13;3.25;;;11.50;65.10;;;;;;5013039;28;20018;-78
2021/04/21 06:16:19;;;;;;;5.95;2.97;;;11.50;65.10;;;;;;5013686;28;20030;-78
2021/04/21 06:19:00;;;;;;;6.82;2.67;;;11.60;65.10;;;;;;5012836;28;20025;-79
2021/04/21 06:21:33;;;;;;;5.03;2.80;;;11.60;65.00;;;;;;5013652;28;20028;-79
2021/04/21 06:23:59;;;;;;;8.98;3.45;;;11.60;65.00;;;;;;5014638;28;20022;-79
2021/04/21 06:26:27;;;;;;;7.38;3.30;;;11.70;65.00;;;;;;5012117;28;20425;-79
2021/04/21 06:29:07;;;;;;;8.05;3.40;;;11.70;65.00;;;;;;5014029;28;20026;-79
2021/04/21 06:31:38;;;;;;;5.75;2.20;;;11.80;65.10;;;;;;5011603;28;20025;-79
2021/04/21 06:34:05;;;;;;;6.65;2.70;;;11.80;64.90;;;;;;5012836;28;20378;-80
2021/04/21 06:36:39;;;;;;;8.18;3.15;;;11.80;64.80;;;;;;5013378;28;20033;-78
2021/04/21 06:39:06;;;;;;;6.95;2.92;;;11.90;64.80;;;;;;5013762;28;20419;-80
2021/04/21 06:41:31;;;;;;;4.60;2.88;;;11.90;64.90;;;;;;5011715;28;20018;-79
2021/04/21 06:43:57;;;;;;;5.93;2.65;;;11.90;64.80;;;;;;5013786;28;20101;-79
2021/04/21 06:46:24;;;;;;;7.53;3.25;;;12.00;64.90;;;;;;5012958;28;20026;-80
2021/04/21 06:48:55;;;;;;;6.85;2.78;;;12.10;65.00;;;;;;5012358;28;20080;-79
2021/04/21 06:51:22;;;;;;;6.90;2.78;;;12.10;65.00;;;;;;5013070;28;20467;-80
2021/04/21 06:53:49;;;;;;;4.53;2.60;;;12.10;65.00;;;;;;5012241;28;20084;-80
2021/04/21 06:56:15;;;;;;;5.20;2.88;;;12.10;65.00;;;;;;5013329;28;20528;-79
2021/04/21 06:58:41;;;;;;;6.47;2.55;;;12.20;65.10;;;;;;5011528;28;20044;-79
2021/04/21 07:01:15;;;;;;;3.95;2.17;;;12.20;65.00;;;;;;5013307;28;20072;-77
2021/04/21 07:03:42;;;;;;;6.65;2.80;;;12.30;65.20;;;;;;5012354;28;20500;-79
2021/04/21 07:06:07;;;;;;;6.13;2.80;;;12.30;65.10;;;;;;5011817;28;20030;-79
2021/04/21 07:08:38;;;;;;;5.88;3.13;;;12.30;64.80;;;;;;5012240;28;20041;-78
2021/04/21 07:11:07;;;;;;;7.67;3.23;;;12.30;64.40;;;;;;5011934;28;20072;-79
2021/04/21 07:13:46;;;;;;;6.65;2.97;;;12.40;64.30;;;;;;5012031;28;20029;-79
2021/04/21 07:16:21;;;;;;;6.10;2.88;;;12.40;63.90;;;;;;5011685;28;20474;-78
2021/04/21 07:18:59;;;;;;;8.65;3.60;;;12.40;63.80;;;;;;5011856;28;20030;-78
2021/04/21 07:21:26;;;;;;;7.70;3.28;;;12.50;63.70;;;;;;5011320;28;20026;-79
2021/04/21 07:23:58;;;;;;;6.95;3.60;;;12.40;63.70;;;;;;5013238;28;20462;-80
2021/04/21 07:26:30;;;;;;;7.80;4.00;;;12.50;63.70;;;;;;5012927;28;20034;-80
2021/04/21 07:28:56;;;;;;;9.00;4.20;;;12.50;63.90;;;;;;5012773;28;20090;-78
2021/04/21 07:31:22;;;;;;;5.30;2.90;;;12.50;63.90;;;;;;5012131;28;20026;-80
2021/04/21 07:33:49;;;;;;;5.25;2.45;;;12.50;63.80;;;;;;5012732;28;20022;-79
2021/04/21 07:36:23;;;;;;;6.60;3.25;;;12.50;63.80;;;;;;5011310;28;20033;-79
2021/04/21 07:38:51;;;;;;;6.65;3.28;;;12.60;63.70;;;;;;5011509;28;20022;-79
2021/04/21 07:41:35;;;;;;;7.55;3.15;;;12.60;63.70;;;;;;5012623;28;20022;-78
2021/04/21 07:44:02;;;;;;;6.88;3.22;;;12.60;63.50;;;;;;5012496;28;20037;-79
2021/04/21 07:46:28;;;;;;;8.05;3.63;;;12.70;63.50;;;;;;5012126;28;20053;-79
2021/04/21 07:48:54;;;;;;;5.53;3.40;;;12.70;63.40;;;;;;5011488;28;20091;-79
2021/04/21 07:51:26;;;;;;;7.20;3.08;;;12.70;63.20;;;;;;5011764;28;20556;-79
2021/04/21 07:53:52;;;;;;;;;;;12.70;63.10;;;;;;5012101;28;20033;-78
2021/04/21 07:56:20;;;;;;;5.93;3.30;;;12.70;63.00;;;;;;5011397;28;19969;-78
2021/04/21 07:58:46;;;;;;;8.80;3.75;;;12.80;62.80;;;;;;5010498;28;20021;-80
2021/04/21 08:01:12;;;;;;;10.43;3.35;;;12.80;62.70;;;;;;5012241;28;20065;-79
2021/04/21 08:03:38;;;;;;;5.68;3.22;;;12.80;62.70;;;;;;5009878;28;20514;-79
2021/04/21 08:06:04;;;;;;;11.90;4.28;;;12.90;62.60;;;;;;5010942;28;20026;-78
2021/04/21 08:08:35;;;;;;;6.72;3.63;;;13.00;62.60;;;;;;5011859;28;20026;-79
2021/04/21 08:11:04;;;;;;;8.32;3.40;;;13.00;62.60;;;;;;5010931;28;20063;-78
2021/04/21 08:13:38;;;;;;;6.03;3.17;;;13.10;62.60;;;;;;5011686;28;20109;-78
2021/04/21 08:16:05;;;;;;;6.68;3.00;;;13.20;62.50;;;;;;5010638;28;20133;-79
2021/04/21 08:18:32;;;;;;;7.32;3.55;;;13.20;62.50;;;;;;5010506;28;20033;-79
2021/04/21 08:20:58;;;;;;;5.57;3.08;;;13.20;62.30;;;;;;5010785;28;20026;-79
2021/04/21 08:23:24;;;;;;;7.60;3.20;;;13.30;62.20;;;;;;5012143;28;20028;-79
2021/04/21 08:25:50;;;;;;;8.35;4.45;;;13.40;62.20;;;;;;5010547;28;20049;-79
2021/04/21 08:28:17;;;;;;;10.75;4.05;;;13.50;61.90;;;;;;5012477;28;20026;-80
2021/04/21 08:31:00;;;;;;;9.43;3.85;;;13.50;61.70;;;;;;5010525;28;20057;-78
2021/04/21 08:33:31;;;;;;;9.23;3.55;;;13.60;61.50;;;;;;5012254;28;20037;-79
2021/04/21 08:35:57;;;;;;;11.25;3.55;;;13.60;61.40;;;;;;5012911;28;20033;-79
2021/04/21 08:38:22;;;;;;;8.85;3.65;;;13.70;61.30;;;;;;5012417;28;20026;-79
2021/04/21 08:40:48;;;;;;;8.18;3.33;;;13.70;61.10;;;;;;5010760;28;20034;-79
2021/04/21 08:43:15;;;;;;;10.35;4.25;;;13.80;61.00;;;;;;5011497;28;20462;-78
2021/04/21 08:45:41;;;;;;;6.22;3.28;;;13.80;60.70;;;;;;5010827;28;20029;-79
2021/04/21 08:48:08;;;;;;;4.60;2.40;;;13.90;60.50;;;;;;5012045;28;20034;-79
2021/04/21 08:50:37;;;;;;;6.95;2.55;;;13.90;60.40;;;;;;5010110;28;20050;-79
2021/04/21 08:53:05;;;;;;;9.57;3.67;;;14.00;60.20;;;;;;5011732;28;20025;-78
2021/04/21 08:55:32;;;;;;;5.63;3.05;;;14.10;60.10;;;;;;5015897;28;20601;-79
2021/04/21 08:57:59;;;;;;;7.85;3.63;;;14.10;59.90;;;;;;5016386;28;20026;-79
2021/04/21 09:00:27;;;;;;;6.10;3.47;;;14.10;59.60;;;;;;5015254;28;20466;-78
2021/04/21 09:02:52;;;;;;;5.53;2.80;;;14.20;59.60;;;;;;5016186;28;20022;-78
2021/04/21 09:05:20;;;;;;;6.95;2.97;;;14.20;59.50;;;;;;5014364;28;20520;-79
2021/04/21 09:07:46;;;;;;;5.85;2.78;;;14.30;59.30;;;;;;5013731;28;20034;-79
2021/04/21 09:10:14;;;;;;;6.50;3.03;;;14.40;59.20;;;;;;5016451;28;20038;-79
2021/04/21 09:12:41;;;;;;;8.15;3.35;;;14.40;58.70;;;;;;5016616;28;20026;-79
2021/04/21 09:15:09;;;;;;;7.75;3.25;;;14.50;58.40;;;;;;5033404;28;20014;-78
2021/04/21 09:17:46;;;;;;;6.68;2.45;;;14.50;57.90;;;;;;5017538;28;20113;-78
2021/04/21 09:20:20;;;;;;;8.38;3.10;;;14.60;57.60;;;;;;5015348;28;20022;-79
2021/04/21 09:23:03;;;;;;;5.80;2.90;;;14.60;57.20;;;;;;5015275;28;20026;-80
2021/04/21 09:25:38;;;;;;;5.30;2.45;;;14.70;57.20;;;;;;5014215;28;20037;-79
2021/04/21 09:28:05;;;;;;;7.55;2.60;;;14.80;57.10;;;;;;5015367;28;20121;-79
2021/04/21 09:30:31;;;;;;;8.07;3.13;;;14.90;56.50;;;;;;5014766;28;20029;-80
2021/04/21 09:32:58;;;;;;;7.40;2.55;;;14.90;56.00;;;;;;5014010;28;20458;-79
2021/04/21 09:35:32;;;;;;;5.72;2.60;;;15.00;55.30;;;;;;5015540;28;20464;-78
2021/04/21 09:38:04;;;;;;;6.50;2.38;;;15.10;55.10;;;;;;5014634;28;20090;-78
2021/04/21 09:40:38;;;;;;;6.93;2.50;;;15.10;55.10;;;;;;5014029;28;20033;-79
2021/04/21 09:43:06;;;;;;;4.97;2.60;;;15.20;55.10;;;;;;5013932;28;20135;-79
2021/04/21 09:45:45;;;;;;;6.03;2.30;;;15.20;54.70;;;;;;5015196;28;20073;-80
2021/04/21 09:48:14;;;;;;;4.10;2.00;;;15.20;54.20;;;;;;5014481;28;20029;-78
2021/04/21 09:50:42;;;;;;;2.55;1.70;;;15.20;53.90;;;;;;5013550;28;20028;-80
2021/04/21 09:53:19;;;;;;;6.55;2.20;;;15.20;54.00;;;;;;5015076;28;20022;-79
2021/04/21 09:56:11;;;;;;;7.07;2.25;;;15.30;54.00;;;;;;5014985;28;20050;-80
2021/04/21 09:58:42;;;;;;;3.40;1.60;;;15.30;53.70;;;;;;5013548;28;20025;-77
2021/04/21 10:01:29;;;;;;;2.75;1.55;;;15.40;53.40;;;;;;5013932;28;20493;-80
2021/04/21 10:04:16;;;;;;;3.92;1.95;;;15.50;53.00;;;;;;5013320;28;20132;-79
2021/04/21 10:06:43;;;;;;;3.28;1.73;;;15.50;52.80;;;;;;5013240;28;20466;-78
2021/04/21 10:09:28;;;;;;;4.13;2.13;;;15.50;52.80;;;;;;5013538;28;20450;-79
2021/04/21 10:12:14;;;;;;;4.47;2.33;;;15.60;52.80;;;;;;5014988;28;20033;-79
2021/04/21 10:14:41;;;;;;;4.18;1.80;;;15.70;52.90;;;;;;5013411;28;20017;-79
2021/04/21 10:17:07;;;;;;;6.50;2.50;;;15.80;52.90;;;;;;5013618;28;20030;-79
2021/04/21 10:19:34;;;;;;;5.53;2.80;;;15.80;52.50;;;;;;5013270;28;20109;-79
2021/04/21 10:22:00;;;;;;;5.82;2.63;;;15.80;52.40;;;;;;5012996;28;20125;-77
2021/04/21 10:24:27;;;;;;;5.28;2.38;;;15.80;52.30;;;;;;5014497;28;20627;-79
2021/04/21 10:26:54;;;;;;;5.47;2.17;;;15.80;52.20;;;;;;5014410;28;20061;-78
2021/04/21 10:29:21;;;;;;;7.40;2.70;;;15.90;52.30;;;;;;5013084;28;20427;-79
2021/04/21 10:31:47;;;;;;;7.05;2.45;;;15.90;52.40;;;;;;5014026;28;20018;-79
2021/04/21 10:34:14;;;;;;;5.07;2.45;;;15.90;52.60;;;;;;5013685;28;20033;-79
2021/04/21 10:36:42;;;;;;;6.72;2.63;;;16.00;52.60;;;;;;5013438;28;20033;-78
2021/04/21 10:39:08;;;;;;;5.93;3.03;;;16.00;52.60;;;;;;5014238;28;20026;-79
2021/04/21 10:41:44;;;;;;;6.32;2.00;;;16.10;52.60;;;;;;5015804;28;20088;-80
2021/04/21 10:44:12;;;;;;;7.28;3.15;;;16.10;52.70;;;;;;5014212;28;20107;-78
2021/04/21 10:47:02;;;;;;;6.13;2.58;;;16.10;52.60;;;;;;5013156;28;20438;-79
2021/04/21 10:49:42;;;;;;;7.82;2.83;;;16.20;52.50;;;;;;5014270;28;20125;-78
2021/04/21 10:52:19;;;;;;;5.68;2.65;;;16.20;52.60;;;;;;5015356;28;20026;-79
2021/04/21 10:54:47;;;;;;;7.75;3.78;;;16.40;52.70;;;;;;5014263;28;20045;-78
2021/04/21 10:57:22;;;;;;;5.40;2.17;;;16.50;52.50;;;;;;5014566;28;20022;-78
2021/04/21 11:00:10;;;;;;;6.93;3.08;;;16.70;52.30;;;;;;5014109;28;20028;-78
2021/04/21 11:02:45;;;;;;;5.07;2.53;;;16.90;52.10;;;;;;5014110;28;20097;-79
2021/04/21 11:05:15;;;;;;;8.50;2.28;;;17.10;51.90;;;;;;5014939;28;20050;-79
2021/04/21 11:07:45;;;;;;;5.80;2.40;;;17.30;51.70;;;;;;5013352;28;20026;-79
2021/04/21 11:10:36;;;;;;;7.75;3.42;;;17.40;51.60;;;;;;5017387;28;20030;-79
2021/04/21 11:13:02;;;;;;;8.95;4.20;;;17.40;51.70;;;;;;5015806;28;20462;-80
2021/04/21 11:15:46;;;;;;;9.25;4.15;;;17.20;52.10;;;;;;5014468;28;20030;-79
2021/04/21 11:18:15;;;;;;;8.27;3.40;;;17.00;52.20;;;;;;5014539;28;20033;-79
2021/04/21 11:20:46;;;;;;;5.78;3.00;;;16.80;52.70;;;;;;5013727;28;20026;-79
2021/04/21 11:26:33;;;;;;;6.47;2.63;;;16.70;53.10;;;;;;5015062;28;20109;-79
2021/04/21 11:29:18;;;;;;;8.70;2.75;;;16.80;53.00;;;;;;5013377;28;20347;-78
2021/04/21 11:32:04;;;;;;;6.50;2.40;;;17.00;52.50;;;;;;5013260;28;20030;-78
2021/04/21 11:34:34;;;;;;;6.80;3.13;;;17.10;52.10;;;;;;5013395;28;20022;-78
2021/04/21 11:37:09;;;;;;;8.40;3.20;;;17.20;51.90;;;;;;5012306;28;20025;-79
2021/04/21 11:42:28;;;;;;;3.80;2.22;;;17.40;51.30;;;;;;5016155;28;20038;-77
2021/04/21 11:45:18;;;;;;;10.45;3.67;;;17.40;51.40;;;;;;5013091;28;20022;-77
2021/04/21 11:48:09;;;;;;;7.38;2.88;;;17.70;50.80;;;;;;5018099;28;20026;-80
2021/04/21 11:50:37;;;;;;;7.03;3.05;;;17.90;50.50;;;;;;5014965;28;20172;-79
2021/04/21 11:53:10;;;;;;;6.32;2.58;;;17.90;50.50;;;;;;5012928;28;20029;-79
2021/04/21 11:55:40;;;;;;;6.95;2.42;;;17.90;50.60;;;;;;5013889;28;20117;-78
2021/04/21 11:58:08;;;;;;;4.10;2.03;;;17.70;50.70;;;;;;5013340;28;20050;-78
2021/04/21 12:00:53;;;;;;;4.22;2.25;;;17.70;50.90;;;;;;5013956;28;20026;-78
2021/04/21 12:03:29;;;;;;;4.20;2.85;;;17.70;50.40;;;;;;5011812;28;20060;-79
2021/04/21 12:05:59;;;;;;;5.88;2.58;;;17.70;50.60;;;;;;5012175;28;20026;-79
2021/04/21 12:08:28;;;;;;;7.65;2.47;;;17.80;50.40;;;;;;5011691;28;20378;-78
2021/04/21 12:10:54;;;;;;;6.93;3.45;;;17.90;50.30;;;;;;5010923;28;20029;-80
2021/04/21 12:13:28;;;;;;;8.10;3.42;;;17.80;50.30;;;;;;5011374;28;20018;-79
2021/04/21 12:15:57;;;;;;;10.75;3.65;;;17.70;51.00;;;;;;5012781;28;20109;-79
2021/04/21 12:18:31;;;;;;;6.32;2.83;;;17.50;51.80;;;;;;5012565;28;20026;-79
2021/04/21 12:20:56;;;;;;;7.80;3.05;;;17.40;52.40;;;;;;5012492;28;20022;-80
2021/04/21 12:23:34;;;;;;;7.35;3.22;;;17.20;53.10;;;;;;5011959;28;20072;-78
2021/04/21 12:26:00;;;;;;;7.95;3.10;;;17.10;53.70;;;;;;5011280;28;20485;-79
2021/04/21 12:28:26;;;;;;;8.13;3.22;;;17.00;53.90;;;;;;5012725;28;20033;-79
2021/04/21 12:30:59;;;;;;;7.60;2.60;;;17.00;53.90;;;;;;5014805;28;20030;-78
2021/04/21 12:33:26;;;;;;;9.05;2.90;;;17.20;53.80;;;;;;5015242;28;20373;-79
2021/04/21 12:35:57;;;;;;;6.70;2.70;;;17.40;53.60;;;;;;5015246;28;20109;-78
2021/04/21 12:38:27;;;;;;;;;;;17.60;53.40;;;;;;5015878;28;20030;-79
2021/04/21 12:40:53;;;;;;;5.10;2.50;;;17.70;53.00;;;;;;5015133;28;19973;-78
2021/04/21 12:43:24;;;;;;;5.32;2.10;;;17.80;52.90;;;;;;5016351;28;20046;-79
2021/04/21 12:45:50;;;;;;;3.35;1.85;;;17.80;53.00;;;;;;5015765;28;20022;-78
2021/04/21 12:48:26;;;;;;;5.50;2.10;;;17.90;53.00;;;;;;5016494;28;20034;-79
2021/04/21 12:50:54;;;;;;;2.97;1.77;;;17.90;52.80;;;;;;5014765;28;20327;-79
2021/04/21 12:53:23;;;;;;;3.92;1.65;;;17.90;53.00;;;;;;5016447;28;20109;-79
2021/04/21 12:56:02;;;;;;;4.50;1.98;;;17.90;53.00;;;;;;5015893;28;20466;-79
2021/04/21 12:58:36;;;;;;;3.35;1.42;;;17.90;52.90;;;;;;5017521;28;20026;-80
2021/04/21 13:01:13;;;;;;;4.00;1.60;;;17.90;52.80;;;;;;5016155;28;20084;-77
2021/04/21 13:03:54;;;;;;;4.50;1.58;;;17.90;52.80;;;;;;5017595;28;20386;-79
2021/04/21 13:06:49;;;;;;;1.67;1.15;;;18.00;52.70;;;;;;5014579;28;20030;-78
2021/04/21 13:09:16;;;;;;;2.53;1.10;;;18.00;52.50;;;;;;5014232;28;20022;-79
2021/04/21 13:11:44;;;;;;;2.80;0.95;;;18.00;52.30;;;;;;5014021;28;20108;-79
2021/04/21 13:14:11;;;;;;;3.55;1.20;;;18.00;52.20;;;;;;5015126;28;20025;-79
2021/04/21 13:16:39;;;;;;;1.65;0.77;;;18.00;52.20;;;;;;5015462;28;20021;-79
2021/04/21 13:19:22;;;;;;;1.50;0.88;;;18.00;52.20;;;;;;5014924;28;20419;-79
2021/04/21 13:22:01;;;;;;;0.60;0.60;;;18.00;52.20;;;;;;5015257;28;20044;-80
2021/04/21 13:24:27;;;;;;;2.33;1.20;;;17.90;52.20;;;;;;5014117;28;20116;-79